Time;durP1;ratioP1;P1;durP2;ratioP2;P2;SDS_P1;SDS_P2;PMS_P1;PMS_P2;Temp;Humidity;BMP_temperature;BMP_pressure;BME280_temperature;BME280_humidity;BME280_pressure;Samples;Min_cycle;Max_cycle;Signal;HPM_P1;HPM_P2
2023/05/20 00:01:52;;;;;;;22.17;20.67;;;11.20;99.90;;;;;;4968302;28;20129;-74
2023/05/20 00:04:19;;;;;;;21.88;20.30;;;11.20;99.90;;;;;;4954268;28;20058;-73
2023/05/20 00:06:46;;;;;;;22.48;20.73;;;11.20;99.90;;;;;;4952011;28;20058;-75
2023/05/20 00:09:13;;;;;;;22.17;20.67;;;11.10;99.90;;;;;;4957572;28;20050;-74
2023/05/20 00:11:39;;;;;;;21.40;19.90;;;11.10;99.90;;;;;;4967353;28;20050;-74
2023/05/20 00:14:06;;;;;;;21.85;20.45;;;11.10;99.90;;;;;;4964747;28;20101;-75
2023/05/20 00:16:33;;;;;;;22.45;20.95;;;11.10;99.90;;;;;;4973120;28;20057;-74
2023/05/20 00:19:00;;;;;;;22.80;20.92;;;11.10;99.90;;;;;;4971023;28;20533;-76
2023/05/20 00:21:28;;;;;;;22.38;20.80;;;11.00;99.90;;;;;;4976061;28;20378;-75
2023/05/20 00:23:55;;;;;;;21.88;20.38;;;11.00;99.90;;;;;;4965473;28;20046;-76
2023/05/20 00:26:22;;;;;;;21.92;20.42;;;11.00;99.90;;;;;;4972609;28;20581;-76
2023/05/20 00:28:53;;;;;;;22.08;20.38;;;11.00;99.90;;;;;;4976547;28;20034;-75
2023/05/20 00:31:22;;;;;;;21.90;20.38;;;11.10;99.90;;;;;;4963482;28;20047;-74
2023/05/20 00:33:49;;;;;;;22.17;20.60;;;11.10;99.90;;;;;;4960886;28;20047;-75
2023/05/20 00:36:16;;;;;;;22.42;20.73;;;11.00;99.90;;;;;;4947179;28;20125;-76
2023/05/20 00:38:43;;;;;;;22.23;20.67;;;11.10;99.90;;;;;;4970164;28;20044;-77
2023/05/20 00:41:09;;;;;;;22.88;21.15;;;11.10;99.90;;;;;;4974568;28;20104;-74
2023/05/20 00:43:36;;;;;;;22.52;21.05;;;11.10;99.90;;;;;;4964023;28;20094;-76
2023/05/20 00:46:03;;;;;;;23.23;21.33;;;11.10;99.90;;;;;;4970566;28;20048;-76
2023/05/20 00:48:39;;;;;;;22.58;20.98;;;11.20;99.90;;;;;;4965359;28;20035;-75
2023/05/20 00:51:06;;;;;;;21.65;20.15;;;11.20;99.90;;;;;;4968399;28;20038;-76
2023/05/20 00:53:35;;;;;;;22.58;20.63;;;11.20;99.90;;;;;;4971356;28;20037;-74
2023/05/20 00:56:03;;;;;;;22.35;20.65;;;11.10;99.90;;;;;;4956691;28;20043;-75
2023/05/20 00:58:30;;;;;;;22.60;21.00;;;11.00;99.90;;;;;;4967238;28;20651;-76
2023/05/20 01:00:57;;;;;;;22.85;21.45;;;10.90;99.90;;;;;;4968779;28;20456;-75
2023/05/20 01:03:24;;;;;;;22.67;21.10;;;10.70;99.90;;;;;;4968153;28;20061;-77
2023/05/20 01:05:51;;;;;;;22.17;20.65;;;10.60;99.90;;;;;;4975353;28;20050;-75
2023/05/20 01:08:18;;;;;;;22.50;20.83;;;10.50;99.90;;;;;;4958487;28;20077;-74
2023/05/20 01:10:50;;;;;;;22.20;20.80;;;10.40;99.90;;;;;;4970350;28;20119;-75
2023/05/20 01:13:20;;;;;;;22.90;21.02;;;10.40;99.90;;;;;;4958126;28;20058;-74
2023/05/20 01:15:48;;;;;;;22.55;20.92;;;10.30;99.90;;;;;;4968903;28;20092;-76
2023/05/20 01:18:17;;;;;;;22.02;20.63;;;10.30;99.90;;;;;;4974612;28;20089;-74
2023/05/20 01:20:49;;;;;;;22.58;21.00;;;10.20;99.90;;;;;;4963312;28;20109;-74
2023/05/20 01:23:16;;;;;;;22.73;21.02;;;10.20;99.90;;;;;;4963073;28;20069;-74
2023/05/20 01:25:43;;;;;;;22.50;20.98;;;10.20;99.90;;;;;;4971523;28;20042;-77
2023/05/20 01:28:16;;;;;;;22.02;20.58;;;10.10;99.90;;;;;;4961932;28;20602;-74
2023/05/20 01:30:49;;;;;;;22.50;20.80;;;10.10;99.90;;;;;;4966776;28;20463;-75
2023/05/20 01:33:19;;;;;;;22.10;20.42;;;10.00;99.90;;;;;;4968913;28;20047;-74
2023/05/20 01:35:46;;;;;;;22.23;20.67;;;10.00;99.90;;;;;;4970344;28;20054;-74
2023/05/20 01:38:18;;;;;;;22.10;20.60;;;10.00;99.90;;;;;;4969169;28;20084;-73
2023/05/20 01:40:46;;;;;;;21.85;20.45;;;9.90;99.90;;;;;;4966348;28;20045;-74
2023/05/20 01:43:13;;;;;;;23.27;21.50;;;9.90;99.90;;;;;;4955273;28;20074;-74
2023/05/20 01:45:43;;;;;;;21.60;20.23;;;9.80;99.90;;;;;;4953802;28;20439;-74
2023/05/20 01:48:10;;;;;;;21.35;19.75;;;9.80;99.90;;;;;;4971367;28;20057;-75
2023/05/20 01:50:38;;;;;;;21.95;20.25;;;9.90;99.90;;;;;;4959071;28;20452;-75
2023/05/20 01:53:08;;;;;;;20.52;19.23;;;10.00;99.90;;;;;;4966052;28;20632;-74
2023/05/20 01:55:35;;;;;;;22.35;20.67;;;9.90;99.90;;;;;;4965451;28;20656;-76
2023/05/20 01:58:02;;;;;;;21.35;19.85;;;9.90;99.90;;;;;;4971473;28;20054;-75
2023/05/20 02:00:31;;;;;;;21.85;20.10;;;9.90;99.90;;;;;;4966256;28;21660;-73
2023/05/20 02:02:58;;;;;;;21.73;20.25;;;9.90;99.90;;;;;;4966804;28;20102;-74
2023/05/20 02:05:25;;;;;;;21.98;20.48;;;9.90;99.90;;;;;;4985257;28;20061;-74
2023/05/20 02:07:51;;;;;;;21.95;20.50;;;10.00;99.90;;;;;;4953479;28;20216;-73
2023/05/20 02:10:19;;;;;;;21.48;19.98;;;10.00;99.90;;;;;;4960765;28;20439;-72
2023/05/20 02:12:48;;;;;;;22.73;21.00;;;10.00;99.90;;;;;;4954819;28;20551;-73
2023/05/20 02:15:15;;;;;;;21.52;20.17;;;10.10;99.90;;;;;;4965610;28;20064;-72
2023/05/20 02:17:42;;;;;;;21.63;20.23;;;10.10;99.90;;;;;;4962435;28;20047;-72
2023/05/20 02:20:10;;;;;;;21.75;20.15;;;10.10;99.90;;;;;;4964989;28;20140;-73
2023/05/20 02:22:37;;;;;;;21.85;20.38;;;10.00;99.90;;;;;;4970710;28;20050;-72
2023/05/20 02:25:04;;;;;;;21.60;20.20;;;9.90;99.90;;;;;;4968816;28;20077;-73
2023/05/20 02:27:31;;;;;;;22.33;20.63;;;9.90;99.90;;;;;;4967851;28;20054;-73
2023/05/20 02:29:59;;;;;;;21.48;19.90;;;9.90;99.90;;;;;;4970025;28;20047;-73
2023/05/20 02:32:27;;;;;;;21.92;20.42;;;9.80;99.90;;;;;;4994676;28;20048;-73
2023/05/20 02:34:54;;;;;;;21.92;20.45;;;9.80;99.90;;;;;;4966720;28;20038;-72
2023/05/20 02:37:21;;;;;;;22.17;20.48;;;9.80;99.90;;;;;;4949140;28;20695;-72
2023/05/20 02:39:48;;;;;;;21.05;19.63;;;9.70;99.90;;;;;;4977994;28;20510;-73
2023/05/20 02:42:15;;;;;;;21.38;19.90;;;9.80;99.90;;;;;;4969533;28;20046;-73
2023/05/20 02:44:42;;;;;;;20.80;19.55;;;10.00;99.90;;;;;;4971599;28;20046;-72
2023/05/20 02:47:09;;;;;;;21.33;19.83;;;10.00;99.90;;;;;;4972814;28;20716;-73
2023/05/20 02:49:36;;;;;;;22.00;20.30;;;10.10;99.90;;;;;;4964565;28;20050;-73
2023/05/20 02:52:04;;;;;;;21.60;20.20;;;10.00;99.90;;;;;;4969382;28;20043;-73
2023/05/20 02:54:30;;;;;;;23.20;21.25;;;10.00;99.90;;;;;;4973015;28;20130;-72
2023/05/20 02:56:57;;;;;;;22.40;20.60;;;10.00;99.90;;;;;;4969235;28;20085;-73
2023/05/20 02:59:24;;;;;;;22.55;20.48;;;10.00;99.90;;;;;;4970473;28;20069;-74
2023/05/20 03:01:51;;;;;;;21.55;20.13;;;9.90;99.90;;;;;;4949438;28;20141;-73
2023/05/20 03:04:20;;;;;;;20.95;19.45;;;10.00;99.90;;;;;;4958973;28;20534;-73
2023/05/20 03:06:47;;;;;;;21.75;20.08;;;10.00;99.90;;;;;;4968801;28;20193;-72
2023/05/20 03:09:14;;;;;;;20.98;19.45;;;10.00;99.90;;;;;;4961470;28;20046;-73
2023/05/20 03:11:41;;;;;;;21.77;20.17;;;10.10;99.90;;;;;;4955125;28;20038;-73
2023/05/20 03:14:08;;;;;;;21.70;19.90;;;10.10;99.90;;;;;;4969210;28;20496;-73
2023/05/20 03:16:35;;;;;;;21.77;20.17;;;10.10;99.90;;;;;;4961053;28;20578;-73
2023/05/20 03:19:02;;;;;;;22.35;20.85;;;10.20;99.90;;;;;;4955600;28;20075;-72
2023/05/20 03:21:29;;;;;;;22.25;20.85;;;10.20;99.90;;;;;;4977712;28;20043;-73
2023/05/20 03:23:56;;;;;;;20.63;19.30;;;10.20;99.90;;;;;;4969578;28;20500;-72
2023/05/20 03:26:24;;;;;;;20.83;19.25;;;10.30;99.90;;;;;;4968414;28;20078;-74
2023/05/20 03:28:51;;;;;;;21.27;19.65;;;10.30;99.90;;;;;;4973171;28;20069;-74
2023/05/20 03:31:18;;;;;;;21.48;19.92;;;10.30;99.90;;;;;;4960022;28;20128;-73
2023/05/20 03:33:45;;;;;;;22.27;20.35;;;10.30;99.90;;;;;;4962827;28;20618;-75
2023/05/20 03:36:11;;;;;;;21.15;19.42;;;10.40;99.90;;;;;;4971471;28;20459;-74
2023/05/20 03:38:39;;;;;;;22.42;20.80;;;10.40;99.90;;;;;;4965479;28;20515;-73
2023/05/20 03:41:06;;;;;;;21.30;19.88;;;10.50;99.90;;;;;;4971413;28;20068;-73
2023/05/20 03:43:33;;;;;;;22.38;20.48;;;10.50;99.90;;;;;;4969936;28;20127;-73
2023/05/20 03:46:00;;;;;;;23.35;21.38;;;10.50;99.90;;;;;;4960340;28;20070;-75
2023/05/20 03:48:27;;;;;;;24.27;22.77;;;10.60;99.90;;;;;;4972786;28;20046;-75
2023/05/20 03:50:54;;;;;;;22.17;20.50;;;10.50;99.90;;;;;;4969169;28;20053;-74
2023/05/20 03:53:21;;;;;;;22.42;20.92;;;10.50;99.90;;;;;;4969286;28;20077;-75
2023/05/20 03:55:48;;;;;;;22.67;20.65;;;10.50;99.90;;;;;;4970139;28;20066;-73
2023/05/20 03:58:15;;;;;;;21.17;19.77;;;10.40;99.90;;;;;;4970297;28;20046;-73
2023/05/20 04:00:42;;;;;;;21.98;20.48;;;10.40;99.90;;;;;;4965618;23;20038;-75
2023/05/20 04:03:09;;;;;;;22.85;21.05;;;10.40;99.90;;;;;;4979653;28;20494;-74
2023/05/20 04:05:36;;;;;;;20.50;19.20;;;10.40;99.90;;;;;;4993417;23;20046;-73
2023/05/20 04:08:08;;;;;;;23.17;21.48;;;10.40;99.90;;;;;;4962110;28;20049;-72
2023/05/20 04:10:35;;;;;;;21.55;20.15;;;10.40;99.90;;;;;;4959226;28;20054;-73
2023/05/20 04:13:02;;;;;;;21.70;20.10;;;10.50;99.90;;;;;;4954091;28;20034;-76
2023/05/20 04:15:29;;;;;;;21.85;20.27;;;10.40;99.90;;;;;;4944429;28;20081;-75
2023/05/20 04:17:57;;;;;;;22.00;20.33;;;10.40;99.90;;;;;;4950884;28;20047;-75
2023/05/20 04:20:24;;;;;;;25.92;23.58;;;10.40;99.90;;;;;;4957550;28;20054;-76
2023/05/20 04:22:54;;;;;;;25.50;23.60;;;10.40;99.90;;;;;;4959062;28;20432;-76
2023/05/20 04:25:21;;;;;;;24.45;22.90;;;10.40;99.90;;;;;;4953335;28;20047;-73
2023/05/20 04:27:49;;;;;;;23.88;22.17;;;10.40;99.90;;;;;;4952503;28;20039;-76
2023/05/20 04:30:17;;;;;;;25.55;23.73;;;10.40;99.90;;;;;;4937614;28;20105;-74
2023/05/20 04:32:44;;;;;;;25.98;23.80;;;10.40;99.90;;;;;;4957724;28;20047;-76
2023/05/20 04:35:12;;;;;;;25.17;23.25;;;10.40;99.90;;;;;;4931520;28;20043;-75
2023/05/20 04:37:43;;;;;;;23.55;21.95;;;10.40;99.90;;;;;;4953406;28;20302;-76
2023/05/20 04:40:12;;;;;;;24.90;22.90;;;10.30;99.90;;;;;;4945186;28;20050;-75
2023/05/20 04:42:40;;;;;;;24.10;22.50;;;10.30;99.90;;;;;;4950555;28;20428;-76
2023/05/20 04:45:07;;;;;;;24.25;22.45;;;10.30;99.90;;;;;;4950718;28;20102;-76
2023/05/20 04:47:37;;;;;;;23.58;21.95;;;10.40;99.90;;;;;;4940907;28;20575;-75
2023/05/20 04:50:09;;;;;;;23.95;22.35;;;10.40;99.90;;;;;;4946664;28;20355;-76
2023/05/20 04:52:40;;;;;;;23.50;21.90;;;10.40;99.90;;;;;;4950186;28;20107;-76
2023/05/20 04:55:09;;;;;;;25.77;23.70;;;10.50;99.90;;;;;;4956616;28;20070;-75
2023/05/20 04:57:38;;;;;;;25.40;23.35;;;10.50;99.90;;;;;;4958302;28;20113;-75
2023/05/20 05:00:06;;;;;;;24.70;23.08;;;10.50;99.90;;;;;;4971960;28;20119;-76
2023/05/20 05:02:34;;;;;;;25.10;22.90;;;10.50;99.90;;;;;;4957040;28;20063;-75
2023/05/20 05:05:02;;;;;;;24.02;22.05;;;10.50;99.90;;;;;;4943600;28;20237;-75
2023/05/20 05:07:29;;;;;;;23.30;21.60;;;10.60;99.90;;;;;;4948558;28;20066;-76
2023/05/20 05:09:55;;;;;;;25.90;24.08;;;10.60;99.90;;;;;;4952178;28;20050;-75
2023/05/20 05:12:22;;;;;;;24.90;23.10;;;10.60;99.90;;;;;;4948001;28;20456;-76
2023/05/20 05:14:49;;;;;;;25.67;23.58;;;10.70;99.90;;;;;;4954234;28;20531;-75
2023/05/20 05:17:16;;;;;;;25.88;23.75;;;10.70;99.90;;;;;;4945430;28;20043;-75
2023/05/20 05:19:43;;;;;;;25.70;23.65;;;10.70;99.90;;;;;;4949467;28;20122;-76
2023/05/20 05:22:10;;;;;;;27.38;25.27;;;10.70;99.90;;;;;;4957146;28;20142;-76
2023/05/20 05:24:38;;;;;;;25.88;23.92;;;10.70;99.90;;;;;;4963007;28;20043;-73
2023/05/20 05:27:05;;;;;;;27.02;25.00;;;10.70;99.90;;;;;;4948166;28;20039;-72
2023/05/20 05:29:32;;;;;;;26.63;24.45;;;10.80;99.90;;;;;;4930681;28;20270;-75
2023/05/20 05:31:58;;;;;;;25.88;24.05;;;10.80;99.90;;;;;;4934131;28;20066;-76
2023/05/20 05:34:25;;;;;;;25.45;23.33;;;10.70;99.90;;;;;;4971509;28;20054;-75
2023/05/20 05:36:58;;;;;;;26.58;24.42;;;10.70;99.90;;;;;;4952127;28;20114;-75
2023/05/20 05:39:25;;;;;;;26.75;24.58;;;10.80;99.90;;;;;;4955440;28;20520;-75
2023/05/20 05:41:52;;;;;;;26.15;24.25;;;10.80;99.90;;;;;;4957417;28;20032;-75
2023/05/20 05:44:20;;;;;;;26.83;24.75;;;10.80;99.90;;;;;;4957580;28;20094;-75
2023/05/20 05:46:48;;;;;;;25.90;24.02;;;10.90;99.90;;;;;;4958932;28;20293;-75
2023/05/20 05:49:15;;;;;;;25.95;24.15;;;10.90;99.90;;;;;;4957219;28;20420;-76
2023/05/20 05:51:42;;;;;;;27.42;25.42;;;10.90;99.90;;;;;;4947589;28;20047;-76
2023/05/20 05:54:09;;;;;;;27.67;25.40;;;11.00;99.90;;;;;;4946827;28;20214;-75
2023/05/20 05:56:36;;;;;;;27.85;25.50;;;11.10;99.90;;;;;;4935210;28;20051;-76
2023/05/20 05:59:04;;;;;;;27.45;25.25;;;11.10;99.90;;;;;;4948093;28;20167;-75
2023/05/20 06:01:30;;;;;;;27.85;25.55;;;11.00;99.90;;;;;;4950298;28;20051;-76
2023/05/20 06:03:58;;;;;;;27.33;25.42;;;11.10;99.90;;;;;;4958675;28;20241;-76
2023/05/20 06:06:25;;;;;;;28.25;25.92;;;11.10;99.90;;;;;;4955888;28;20062;-75
2023/05/20 06:08:52;;;;;;;27.17;25.25;;;11.20;99.90;;;;;;4945108;28;20573;-74
2023/05/20 06:11:20;;;;;;;28.17;25.98;;;11.20;99.90;;;;;;4971226;28;20062;-74
2023/05/20 06:13:47;;;;;;;28.30;25.98;;;11.20;99.90;;;;;;4970561;28;20043;-75
2023/05/20 06:16:15;;;;;;;26.45;24.55;;;11.30;99.90;;;;;;4958024;28;20324;-74
2023/05/20 06:18:42;;;;;;;29.25;26.63;;;11.30;99.90;;;;;;4939126;28;20534;-74
2023/05/20 06:21:09;;;;;;;29.90;27.33;;;11.30;99.90;;;;;;4950452;28;20336;-75
2023/05/20 06:23:35;;;;;;;28.58;26.45;;;11.40;99.90;;;;;;4948786;28;20050;-74
2023/05/20 06:26:04;;;;;;;28.48;26.27;;;11.50;99.90;;;;;;4947588;28;20047;-74
2023/05/20 06:28:31;;;;;;;28.63;26.52;;;11.50;99.90;;;;;;4954976;28;20059;-74
2023/05/20 06:30:58;;;;;;;29.02;26.73;;;11.60;99.90;;;;;;4959188;28;20042;-74
2023/05/20 06:33:29;;;;;;;28.42;26.08;;;11.60;99.90;;;;;;4958489;28;20397;-74
2023/05/20 06:36:00;;;;;;;28.17;26.05;;;11.50;99.90;;;;;;4961308;28;20038;-74
2023/05/20 06:38:27;;;;;;;27.40;25.10;;;11.60;99.90;;;;;;4952282;28;20098;-74
2023/05/20 06:40:54;;;;;;;28.98;26.70;;;11.60;99.90;;;;;;4958783;28;20058;-74
2023/05/20 06:43:21;;;;;;;29.38;27.00;;;11.70;99.90;;;;;;4963407;28;20047;-74
2023/05/20 06:46:03;;;;;;;30.92;28.13;;;11.80;99.90;;;;;;4953173;28;20039;-73
2023/05/20 06:48:35;;;;;;;29.05;26.70;;;11.90;99.90;;;;;;4951526;28;20071;-74
2023/05/20 06:51:02;;;;;;;28.92;26.75;;;12.00;99.90;;;;;;4951244;28;20050;-74
2023/05/20 06:53:29;;;;;;;31.60;28.63;;;12.00;99.90;;;;;;4931415;28;20047;-75
2023/05/20 06:55:56;;;;;;;29.85;27.55;;;12.20;99.90;;;;;;4954394;28;20105;-74
2023/05/20 06:58:23;;;;;;;30.15;27.60;;;12.30;99.90;;;;;;4955178;28;20054;-74
2023/05/20 07:00:51;;;;;;;29.23;26.92;;;12.40;99.90;;;;;;4946771;28;20074;-74
2023/05/20 07:03:18;;;;;;;30.05;27.25;;;12.30;99.90;;;;;;4966358;28;20050;-74
2023/05/20 07:05:45;;;;;;;30.48;27.88;;;12.40;99.90;;;;;;4948371;28;20654;-73
2023/05/20 07:08:12;;;;;;;30.55;27.80;;;12.60;99.90;;;;;;4936870;28;20097;-74
2023/05/20 07:10:39;;;;;;;30.92;28.45;;;12.90;99.90;;;;;;4940504;28;20459;-75
2023/05/20 07:13:07;;;;;;;30.70;28.10;;;13.20;99.90;;;;;;4933760;28;20051;-74
2023/05/20 07:15:33;;;;;;;29.08;26.65;;;13.30;99.90;;;;;;4945568;28;20469;-73
2023/05/20 07:18:01;;;;;;;30.95;28.35;;;13.20;99.90;;;;;;4943371;28;20241;-74
2023/05/20 07:20:28;;;;;;;31.02;28.83;;;13.30;99.90;;;;;;4951104;28;20051;-74
2023/05/20 07:23:02;;;;;;;31.75;29.40;;;13.50;99.90;;;;;;4958441;28;20062;-74
2023/05/20 07:25:36;;;;;;;32.70;30.25;;;13.30;99.90;;;;;;4972468;28;20043;-74
2023/05/20 07:28:03;;;;;;;31.73;29.33;;;13.30;99.90;;;;;;4949410;28;20051;-74
2023/05/20 07:30:30;;;;;;;34.38;31.98;;;13.40;99.90;;;;;;4938494;28;20133;-74
2023/05/20 07:33:16;;;;;;;33.25;30.95;;;13.80;99.90;;;;;;4955205;28;20043;-74
2023/05/20 07:35:44;;;;;;;31.95;29.75;;;14.10;99.90;;;;;;4951914;28;20047;-73
2023/05/20 07:38:11;;;;;;;32.72;30.42;;;14.40;99.90;;;;;;4949088;28;20043;-73
2023/05/20 07:40:40;;;;;;;31.73;29.63;;;14.40;99.90;;;;;;4949332;28;20173;-74
2023/05/20 07:43:08;;;;;;;33.00;30.65;;;14.40;99.90;;;;;;4958651;28;20312;-74
2023/05/20 07:45:35;;;;;;;32.53;30.23;;;14.40;99.90;;;;;;4947970;28;20638;-74
2023/05/20 07:48:04;;;;;;;34.33;32.20;;;14.70;99.90;;;;;;4935531;28;20697;-74
2023/05/20 07:50:33;;;;;;;35.08;32.63;;;14.60;99.90;;;;;;4935649;28;20046;-74
2023/05/20 07:53:00;;;;;;;34.42;32.13;;;14.50;99.90;;;;;;4956945;28;20428;-74
2023/05/20 07:55:30;;;;;;;33.17;30.88;;;14.60;99.90;;;;;;4929345;28;20126;-74
2023/05/20 07:57:57;;;;;;;33.15;30.40;;;14.30;99.90;;;;;;4937128;28;20043;-75
2023/05/20 08:00:24;;;;;;;32.45;30.45;;;14.30;99.90;;;;;;4940038;28;20492;-76
2023/05/20 08:02:51;;;;;;;31.80;29.50;;;14.30;99.90;;;;;;4953738;28;20039;-73
2023/05/20 08:05:25;;;;;;;34.05;31.77;;;14.60;99.90;;;;;;4956076;28;20086;-73
2023/05/20 08:07:52;;;;;;;32.63;30.52;;;14.50;99.90;;;;;;4945132;28;20460;-73
2023/05/20 08:10:22;;;;;;;33.83;31.48;;;14.60;99.90;;;;;;4952912;28;20362;-74
2023/05/20 08:12:49;;;;;;;33.88;31.35;;;14.50;99.90;;;;;;4947885;28;20055;-73
2023/05/20 08:15:16;;;;;;;35.50;32.88;;;14.40;99.90;;;;;;4930586;28;20047;-74
2023/05/20 08:17:44;;;;;;;33.10;30.63;;;14.70;99.90;;;;;;4956294;28;20388;-74
2023/05/20 08:20:12;;;;;;;32.70;30.48;;;15.00;99.90;;;;;;4949930;28;20046;-74
2023/05/20 08:22:39;;;;;;;33.20;30.58;;;14.80;99.90;;;;;;4931367;28;20047;-74
2023/05/20 08:25:09;;;;;;;31.92;29.67;;;14.80;99.90;;;;;;4939962;28;20155;-73
2023/05/20 08:27:36;;;;;;;31.65;29.55;;;14.50;99.90;;;;;;4953149;28;20057;-77
2023/05/20 08:30:06;;;;;;;32.78;30.20;;;14.40;99.90;;;;;;4954835;28;20432;-73
2023/05/20 08:32:33;;;;;;;31.42;29.25;;;14.30;99.90;;;;;;4940420;28;20047;-73
2023/05/20 08:35:01;;;;;;;33.20;30.92;;;14.50;99.90;;;;;;4943467;28;20039;-74
2023/05/20 08:37:28;;;;;;;34.92;32.30;;;14.70;99.90;;;;;;4960394;28;20305;-75
2023/05/20 08:39:55;;;;;;;33.75;31.50;;;14.50;99.90;;;;;;4955336;28;20050;-74
2023/05/20 08:42:23;;;;;;;33.83;31.52;;;14.40;99.90;;;;;;4955811;28;20093;-75
2023/05/20 08:44:53;;;;;;;31.90;29.80;;;14.60;99.90;;;;;;4952012;28;20208;-75
2023/05/20 08:47:21;;;;;;;33.67;31.30;;;14.80;99.90;;;;;;4954822;28;20047;-75
2023/05/20 08:49:49;;;;;;;32.80;30.45;;;14.80;99.90;;;;;;4934158;28;20070;-74
2023/05/20 08:52:19;;;;;;;36.88;34.42;;;14.70;99.90;;;;;;4953497;28;20511;-74
2023/05/20 08:54:48;;;;;;;33.90;31.48;;;14.70;99.90;;;;;;4960671;28;20038;-75
2023/05/20 08:57:15;;;;;;;36.67;34.28;;;15.00;99.90;;;;;;4959855;28;20121;-75
2023/05/20 08:59:43;;;;;;;37.08;34.67;;;15.30;99.90;;;;;;4949322;28;20089;-76
2023/05/20 09:02:11;;;;;;;34.85;32.00;;;15.80;99.90;;;;;;4952391;28;20119;-74
2023/05/20 09:04:38;;;;;;;39.65;37.17;;;15.80;99.90;;;;;;4951358;28;20078;-75
2023/05/20 09:07:05;;;;;;;35.78;33.33;;;15.80;99.90;;;;;;4960035;28;20050;-75
2023/05/20 09:09:34;;;;;;;35.90;33.70;;;15.90;99.90;;;;;;4953394;28;20070;-74
2023/05/20 09:12:02;;;;;;;35.00;32.80;;;15.90;99.90;;;;;;4948555;28;20043;-75
2023/05/20 09:14:29;;;;;;;33.47;31.10;;;15.90;99.90;;;;;;4938510;28;20742;-75
2023/05/20 09:16:56;;;;;;;35.00;32.65;;;16.30;99.90;;;;;;4946425;28;20046;-75
2023/05/20 09:19:23;;;;;;;34.00;31.70;;;16.30;99.90;;;;;;4959083;28;20405;-75
2023/05/20 09:21:52;;;;;;;34.15;32.05;;;15.90;99.90;;;;;;4954360;28;20038;-76
2023/05/20 09:24:23;;;;;;;33.63;31.42;;;15.90;99.90;;;;;;4957250;28;20094;-77
2023/05/20 09:26:50;;;;;;;35.85;33.55;;;15.90;99.90;;;;;;4951209;28;20124;-76
2023/05/20 09:29:20;;;;;;;33.60;31.42;;;16.00;99.90;;;;;;4958731;28;20106;-77
2023/05/20 09:31:48;;;;;;;36.78;34.35;;;16.50;99.90;;;;;;4960296;28;20319;-76
2023/05/20 09:34:19;;;;;;;36.53;34.05;;;16.40;99.90;;;;;;4958075;28;20050;-76
2023/05/20 09:36:52;;;;;;;35.90;33.58;;;16.40;99.90;;;;;;4957789;28;20035;-76
2023/05/20 09:39:24;;;;;;;35.65;33.30;;;16.40;99.90;;;;;;4970177;28;20146;-77
2023/05/20 09:42:00;;;;;;;35.03;32.92;;;16.30;99.90;;;;;;4951407;28;20043;-76
2023/05/20 09:44:30;;;;;;;34.25;32.15;;;16.00;99.90;;;;;;4955073;28;20142;-76
2023/05/20 09:46:58;;;;;;;36.05;33.83;;;16.00;99.90;;;;;;4960412;28;20611;-76
2023/05/20 09:49:27;;;;;;;36.88;34.30;;;16.00;99.90;;;;;;4959568;28;20058;-77
2023/05/20 09:51:56;;;;;;;35.47;33.10;;;15.90;99.90;;;;;;4957712;28;20513;-76
2023/05/20 09:54:24;;;;;;;34.55;32.35;;;15.90;99.90;;;;;;4948125;28;20062;-77
2023/05/20 09:56:52;;;;;;;34.95;32.80;;;16.00;99.90;;;;;;4964804;28;20054;-76
2023/05/20 09:59:21;;;;;;;33.83;31.63;;;16.00;99.90;;;;;;4941346;28;20126;-76
2023/05/20 10:01:47;;;;;;;34.05;31.63;;;16.00;99.90;;;;;;4961632;28;20061;-76
2023/05/20 10:04:16;;;;;;;31.70;29.67;;;15.70;99.90;;;;;;4941529;28;20051;-75
2023/05/20 10:07:05;;;;;;;33.08;30.90;;;15.70;99.90;;;;;;4980403;23;20050;-74
2023/05/20 10:09:58;;;;;;;33.47;31.20;;;15.70;99.90;;;;;;4949241;28;20038;-73
2023/05/20 10:12:36;;;;;;;33.78;31.63;;;15.70;99.90;;;;;;4973251;28;20134;-73
2023/05/20 10:15:15;;;;;;;33.55;31.55;;;15.50;99.90;;;;;;4969536;28;20074;-73
2023/05/20 10:17:42;;;;;;;32.38;30.45;;;15.50;99.90;;;;;;4946690;28;20039;-72
2023/05/20 10:20:10;;;;;;;33.53;31.30;;;15.90;99.90;;;;;;4945971;28;20139;-72
2023/05/20 10:22:41;;;;;;;33.25;31.25;;;15.80;99.90;;;;;;4949714;28;20057;-73
2023/05/20 10:25:22;;;;;;;32.33;30.17;;;15.90;99.90;;;;;;4964688;28;20054;-80
2023/05/20 10:27:48;;;;;;;34.70;32.33;;;15.80;99.90;;;;;;4939201;28;20082;-77
2023/05/20 10:30:17;;;;;;;32.55;30.58;;;15.50;99.90;;;;;;4962712;28;20194;-77
2023/05/20 10:33:01;;;;;;;34.00;31.92;;;15.40;99.90;;;;;;4949941;28;20051;-76
2023/05/20 10:35:28;;;;;;;33.13;31.17;;;15.40;99.90;;;;;;4971061;28;20057;-77
2023/05/20 10:38:10;;;;;;;33.30;31.15;;;15.60;99.90;;;;;;4951470;28;20043;-78
2023/05/20 10:40:38;;;;;;;33.30;31.25;;;15.60;99.90;;;;;;4955030;28;20043;-79
2023/05/20 10:43:17;;;;;;;35.42;33.22;;;15.60;99.90;;;;;;4970058;28;20097;-79
2023/05/20 10:45:52;;;;;;;32.72;30.83;;;15.60;99.90;;;;;;4954771;28;20075;-79
2023/05/20 10:48:26;;;;;;;;;;;15.60;99.90;;;;;;4954180;28;20071;-79
2023/05/20 10:50:58;;;;;;;32.58;30.77;;;15.60;99.90;;;;;;4954113;28;19930;-79
2023/05/20 10:53:26;;;;;;;32.65;30.48;;;15.50;99.90;;;;;;4961832;28;20051;-78
2023/05/20 10:56:00;;;;;;;31.13;29.27;;;15.60;99.90;;;;;;4964777;28;20051;-78
2023/05/20 10:58:35;;;;;;;33.55;31.48;;;15.50;99.90;;;;;;4947160;28;20687;-79
2023/05/20 11:01:02;;;;;;;32.05;29.95;;;15.60;99.90;;;;;;4953868;28;20106;-79
2023/05/20 11:03:29;;;;;;;32.65;30.45;;;15.50;99.90;;;;;;4952667;28;20533;-78
2023/05/20 11:05:56;;;;;;;32.22;30.30;;;15.50;99.90;;;;;;4970940;28;20076;-77
2023/05/20 11:08:28;;;;;;;33.00;30.90;;;15.70;99.90;;;;;;4956114;28;20175;-78
2023/05/20 11:10:56;;;;;;;34.42;32.03;;;15.70;99.90;;;;;;4956533;28;20042;-79
2023/05/20 11:13:24;;;;;;;33.08;31.05;;;15.50;99.90;;;;;;4964385;28;20089;-78
2023/05/20 11:15:51;;;;;;;34.40;31.75;;;15.30;99.90;;;;;;4944581;28;20051;-77
2023/05/20 11:18:18;;;;;;;32.45;30.65;;;15.30;99.90;;;;;;4950447;28;20043;-77
2023/05/20 11:20:46;;;;;;;33.53;31.02;;;15.30;99.90;;;;;;4953136;28;20073;-76
2023/05/20 11:23:13;;;;;;;34.42;32.25;;;15.40;99.90;;;;;;4944672;28;20051;-76
2023/05/20 11:25:41;;;;;;;34.15;32.15;;;15.20;99.90;;;;;;4947556;28;20118;-77
2023/05/20 11:28:14;;;;;;;34.45;32.28;;;15.10;99.90;;;;;;4959839;28;20497;-76
2023/05/20 11:30:42;;;;;;;34.38;32.20;;;15.20;99.90;;;;;;4948534;28;20094;-77
2023/05/20 11:33:12;;;;;;;34.50;32.50;;;15.30;99.90;;;;;;4947668;28;20125;-77
2023/05/20 11:35:44;;;;;;;33.55;31.65;;;15.30;99.90;;;;;;4946014;28;20134;-78
2023/05/20 11:38:12;;;;;;;34.85;32.67;;;15.30;99.90;;;;;;4942111;28;20576;-76
2023/05/20 11:40:49;;;;;;;34.95;32.80;;;15.50;99.90;;;;;;4969737;28;20709;-76
2023/05/20 11:43:18;;;;;;;34.42;32.42;;;15.50;99.90;;;;;;4949050;28;20051;-77
2023/05/20 11:45:51;;;;;;;33.53;31.55;;;15.40;99.90;;;;;;4948990;28;20500;-77
2023/05/20 11:48:18;;;;;;;31.63;29.75;;;15.60;99.90;;;;;;4949988;28;20520;-76
2023/05/20 11:50:46;;;;;;;30.73;28.83;;;15.90;99.90;;;;;;4942133;28;20066;-76
2023/05/20 11:53:16;;;;;;;32.47;30.67;;;15.90;99.90;;;;;;4943952;28;20067;-77
2023/05/20 11:55:48;;;;;;;35.53;33.38;;;15.80;99.90;;;;;;4928818;28;20051;-76
2023/05/20 11:58:17;;;;;;;35.78;33.10;;;15.60;99.90;;;;;;4951382;28;20050;-77
2023/05/20 12:00:44;;;;;;;33.78;31.85;;;16.00;99.90;;;;;;4964841;28;20393;-76
2023/05/20 12:03:20;;;;;;;36.58;33.50;;;16.30;99.90;;;;;;4947379;28;20085;-76
2023/05/20 12:05:49;;;;;;;32.03;30.35;;;16.40;99.90;;;;;;4948760;28;20124;-76
2023/05/20 12:08:16;;;;;;;33.42;31.52;;;16.30;99.90;;;;;;4942195;28;20035;-77
2023/05/20 12:10:43;;;;;;;46.50;35.38;;;16.10;99.90;;;;;;4953594;28;20074;-77
2023/05/20 12:13:12;;;;;;;43.33;36.30;;;15.80;99.90;;;;;;4950237;28;20050;-77
2023/05/20 12:15:39;;;;;;;33.75;31.73;;;15.80;99.90;;;;;;4956447;28;20039;-76
2023/05/20 12:18:06;;;;;;;34.47;32.10;;;15.60;99.90;;;;;;4960361;28;20050;-76
2023/05/20 12:20:33;;;;;;;37.45;35.15;;;15.80;99.90;;;;;;4946972;28;20051;-77
2023/05/20 12:23:00;;;;;;;33.83;31.58;;;15.90;99.90;;;;;;4950217;28;20046;-77
2023/05/20 12:25:27;;;;;;;31.95;30.10;;;16.00;99.90;;;;;;4952070;28;20039;-77
2023/05/20 12:27:54;;;;;;;33.17;31.20;;;15.90;99.90;;;;;;4951971;28;20089;-76
2023/05/20 12:30:22;;;;;;;31.88;29.98;;;15.90;99.90;;;;;;4947364;28;20492;-72
2023/05/20 12:32:50;;;;;;;30.63;28.73;;;16.00;99.90;;;;;;4952029;28;20035;-73
2023/05/20 12:35:24;;;;;;;36.58;34.30;;;15.80;99.90;;;;;;4949938;28;20082;-72